createdAt,value
2022-12-31T00:00:46.879Z,57.01
2022-12-31T00:03:13.922Z,57.13
2022-12-31T00:05:41.081Z,57.17
2022-12-31T00:08:07.965Z,57.30
2022-12-31T00:10:41.769Z,57.32
2022-12-31T00:13:10.192Z,57.03
2022-12-31T00:15:37.186Z,57.36
2022-12-31T00:18:03.925Z,57.06
2022-12-31T00:20:30.848Z,57.28
2022-12-31T00:22:57.725Z,57.63
2022-12-31T00:25:24.515Z,57.48
2022-12-31T00:27:51.367Z,57.52
2022-12-31T00:30:18.266Z,57.50
2022-12-31T00:32:45.251Z,57.38
2022-12-31T00:35:11.933Z,57.29
2022-12-31T00:37:38.707Z,57.55
2022-12-31T00:40:05.812Z,57.71
2022-12-31T00:42:32.790Z,57.90
2022-12-31T00:44:59.777Z,57.56
2022-12-31T00:47:26.669Z,57.42
2022-12-31T00:49:53.566Z,57.62
2022-12-31T00:52:20.279Z,57.66
2022-12-31T00:54:47.172Z,57.98
2022-12-31T00:57:14.057Z,57.57
2022-12-31T00:59:40.756Z,57.78
2022-12-31T01:02:07.881Z,57.69
2022-12-31T01:04:34.794Z,58.00
2022-12-31T01:07:01.465Z,57.75
2022-12-31T01:09:28.148Z,57.72
2022-12-31T01:11:55.166Z,58.14
2022-12-31T01:14:22.189Z,57.95
2022-12-31T01:16:50.558Z,57.95
2022-12-31T01:19:19.184Z,57.80
2022-12-31T01:21:47.167Z,58.06
2022-12-31T01:24:14.231Z,58.03
2022-12-31T01:26:40.986Z,57.91
2022-12-31T01:29:09.117Z,58.10
2022-12-31T01:31:36.606Z,57.80
2022-12-31T01:34:03.936Z,57.95
2022-12-31T01:36:32.281Z,58.01
2022-12-31T01:39:00.523Z,58.02
2022-12-31T01:41:31.965Z,57.92
2022-12-31T01:43:59.349Z,58.40
2022-12-31T01:46:35.702Z,58.20
2022-12-31T01:49:07.004Z,58.23
2022-12-31T01:51:34.875Z,58.15
2022-12-31T01:54:03.118Z,58.20
2022-12-31T01:56:29.977Z,58.33
2022-12-31T01:58:57.245Z,58.15
2022-12-31T02:01:26.587Z,58.07
2022-12-31T02:03:53.883Z,58.19
2022-12-31T02:06:22.345Z,58.28
2022-12-31T02:08:49.273Z,58.39
2022-12-31T02:11:21.337Z,58.54
2022-12-31T02:13:48.094Z,58.29
2022-12-31T02:16:21.289Z,58.62
2022-12-31T02:18:57.484Z,58.21
2022-12-31T02:21:29.094Z,58.10
2022-12-31T02:24:04.328Z,58.29
2022-12-31T02:26:31.205Z,58.32
2022-12-31T02:29:18.033Z,58.40
2022-12-31T02:31:48.212Z,58.58
2022-12-31T02:34:24.447Z,58.54
2022-12-31T02:36:53.020Z,58.45
2022-12-31T02:39:20.148Z,58.38
2022-12-31T02:41:52.097Z,58.65
2022-12-31T02:44:28.664Z,58.24
2022-12-31T02:47:03.771Z,58.65
2022-12-31T02:49:39.674Z,58.48
2022-12-31T02:52:07.268Z,58.55
2022-12-31T02:54:39.568Z,58.52
2022-12-31T02:57:10.182Z,58.32
2022-12-31T02:59:53.607Z,58.58
2022-12-31T03:02:22.437Z,58.55
2022-12-31T03:04:51.753Z,58.58
2022-12-31T03:07:21.628Z,58.73
2022-12-31T03:09:48.717Z,58.63
2022-12-31T03:12:25.233Z,58.62
2022-12-31T03:14:51.849Z,58.53
2022-12-31T03:17:18.536Z,58.53
2022-12-31T03:19:54.433Z,58.81
2022-12-31T03:22:31.457Z,58.71
2022-12-31T03:25:11.052Z,58.65
2022-12-31T03:27:37.882Z,58.52
2022-12-31T03:30:04.849Z,58.65
2022-12-31T03:32:31.893Z,59.00
2022-12-31T03:34:58.779Z,58.87
2022-12-31T03:37:25.382Z,58.74
2022-12-31T03:39:52.002Z,58.65
2022-12-31T03:42:18.728Z,58.61
2022-12-31T03:44:45.324Z,58.80
2022-12-31T03:47:11.953Z,58.87
2022-12-31T03:49:38.598Z,58.74
2022-12-31T03:52:06.743Z,58.81
2022-12-31T03:54:33.389Z,59.00
2022-12-31T03:57:00.526Z,58.99
2022-12-31T03:59:27.269Z,59.12
2022-12-31T04:01:53.965Z,59.18
2022-12-31T04:04:20.864Z,59.13
2022-12-31T04:06:47.483Z,59.12
2022-12-31T04:09:14.130Z,59.33
2022-12-31T04:11:40.739Z,59.51
2022-12-31T04:14:07.548Z,59.54
2022-12-31T04:16:34.257Z,59.39
2022-12-31T04:19:00.960Z,59.31
2022-12-31T04:21:33.053Z,59.53
2022-12-31T04:24:01.998Z,59.51
2022-12-31T04:26:28.738Z,59.60
2022-12-31T04:28:55.354Z,59.69
2022-12-31T04:31:22.047Z,59.46
2022-12-31T04:33:48.738Z,59.60
2022-12-31T04:36:15.433Z,59.59
2022-12-31T04:38:42.131Z,59.86
2022-12-31T04:41:18.794Z,59.87
2022-12-31T04:43:47.225Z,59.93
2022-12-31T04:46:14.462Z,60.06
2022-12-31T04:48:41.606Z,60.15
2022-12-31T04:51:08.222Z,60.03
2022-12-31T04:53:34.878Z,60.23
2022-12-31T04:56:01.531Z,60.45
2022-12-31T04:58:28.631Z,60.17
2022-12-31T05:00:55.663Z,60.43
2022-12-31T05:03:23.210Z,60.46
2022-12-31T05:05:50.298Z,60.79
2022-12-31T05:08:17.699Z,60.87
2022-12-31T05:10:45.919Z,60.92
2022-12-31T05:13:13.279Z,61.03
2022-12-31T05:15:40.467Z,60.71
2022-12-31T05:18:07.348Z,61.13
2022-12-31T05:20:34.178Z,60.94
2022-12-31T05:23:00.979Z,61.31
2022-12-31T05:25:27.843Z,61.42
2022-12-31T05:27:54.484Z,61.39
2022-12-31T05:30:21.279Z,61.64
2022-12-31T05:32:48.202Z,61.47
2022-12-31T05:35:15.091Z,61.66
2022-12-31T05:37:41.850Z,61.43
2022-12-31T05:40:09.128Z,61.71
2022-12-31T05:42:35.771Z,61.76
2022-12-31T05:45:02.448Z,61.92
2022-12-31T05:47:29.155Z,61.94
2022-12-31T05:49:55.812Z,61.54
2022-12-31T05:52:22.415Z,61.59
2022-12-31T05:54:49.069Z,61.67
2022-12-31T05:57:15.760Z,61.93
2022-12-31T05:59:42.449Z,61.82
2022-12-31T06:02:09.103Z,61.95
2022-12-31T06:04:35.719Z,62.16
2022-12-31T06:07:02.427Z,61.99
2022-12-31T06:09:29.025Z,62.07
2022-12-31T06:11:55.618Z,62.11
2022-12-31T06:14:22.412Z,62.27
2022-12-31T06:16:49.003Z,62.48
2022-12-31T06:19:15.673Z,62.45
2022-12-31T06:21:42.278Z,62.33
2022-12-31T06:24:09.041Z,62.60
2022-12-31T06:26:35.623Z,62.31
2022-12-31T06:29:02.294Z,62.31
2022-12-31T06:31:29.061Z,62.42
2022-12-31T06:33:55.899Z,62.85
2022-12-31T06:36:22.628Z,62.58
2022-12-31T06:38:49.654Z,63.06
2022-12-31T06:41:16.845Z,62.76
2022-12-31T06:43:43.669Z,62.97
2022-12-31T06:46:11.995Z,62.72
2022-12-31T06:48:38.775Z,62.77
2022-12-31T06:51:06.680Z,62.92
2022-12-31T06:53:35.365Z,63.08
2022-12-31T06:56:06.786Z,63.32
2022-12-31T06:58:33.615Z,62.93
2022-12-31T07:01:06.920Z,63.00
2022-12-31T07:03:43.535Z,63.16
2022-12-31T07:06:15.410Z,63.28
2022-12-31T07:08:42.435Z,63.17
2022-12-31T07:11:18.623Z,63.09
2022-12-31T07:13:48.769Z,63.35
2022-12-31T07:16:15.983Z,63.15
2022-12-31T07:18:46.949Z,63.35
2022-12-31T07:21:15.946Z,63.19
2022-12-31T07:23:43.089Z,63.52
2022-12-31T07:26:19.083Z,63.50
2022-12-31T07:28:48.891Z,63.50
2022-12-31T07:31:16.071Z,63.66
2022-12-31T07:33:43.634Z,63.62
2022-12-31T07:36:21.254Z,63.66
2022-12-31T07:38:58.680Z,63.56
2022-12-31T07:41:35.897Z,63.80
2022-12-31T07:44:04.165Z,63.76
2022-12-31T07:46:40.719Z,63.87
2022-12-31T07:49:17.393Z,63.75
2022-12-31T07:51:44.314Z,63.92
2022-12-31T07:54:14.228Z,64.01
2022-12-31T07:56:42.377Z,64.33
2022-12-31T07:59:24.031Z,64.23
2022-12-31T08:02:00.903Z,64.32
2022-12-31T08:04:29.659Z,63.93
2022-12-31T08:06:57.025Z,64.09
2022-12-31T08:09:32.265Z,63.89
2022-12-31T08:12:00.837Z,64.51
2022-12-31T08:14:29.141Z,64.10
2022-12-31T08:16:58.227Z,64.45
2022-12-31T08:19:26.809Z,64.47
2022-12-31T08:22:01.729Z,64.20
2022-12-31T08:24:36.627Z,64.26
2022-12-31T08:27:04.220Z,64.37
2022-12-31T08:29:36.355Z,64.35
2022-12-31T08:32:12.840Z,64.28
2022-12-31T08:34:41.463Z,64.56
2022-12-31T08:37:11.706Z,64.31
2022-12-31T08:39:49.619Z,64.83
2022-12-31T08:42:23.435Z,64.75
2022-12-31T08:44:51.484Z,64.64
2022-12-31T08:47:35.496Z,64.77
2022-12-31T08:50:05.757Z,64.94
2022-12-31T08:52:33.012Z,64.95
2022-12-31T08:55:00.242Z,64.79
2022-12-31T08:57:33.954Z,64.70
2022-12-31T09:00:12.079Z,64.90
2022-12-31T09:02:46.213Z,65.05
2022-12-31T09:05:22.122Z,65.00
2022-12-31T09:07:56.402Z,65.12
2022-12-31T09:10:31.214Z,64.95
2022-12-31T09:12:59.514Z,64.87
2022-12-31T09:15:36.749Z,64.95
2022-12-31T09:18:04.322Z,64.73
2022-12-31T09:20:42.672Z,65.23
2022-12-31T09:23:15.133Z,65.16
2022-12-31T09:25:55.275Z,64.77
2022-12-31T09:28:32.495Z,64.95
2022-12-31T09:31:07.083Z,65.28
2022-12-31T09:33:36.311Z,65.08
2022-12-31T09:36:06.315Z,65.05
2022-12-31T09:38:42.766Z,65.05
2022-12-31T09:41:18.420Z,65.22
2022-12-31T09:43:59.027Z,65.27
2022-12-31T09:46:37.124Z,65.13
2022-12-31T09:49:09.173Z,65.31
2022-12-31T09:51:48.719Z,65.45
2022-12-31T09:54:25.459Z,65.35
2022-12-31T09:57:03.051Z,65.18
2022-12-31T09:59:42.301Z,65.42
2022-12-31T10:02:18.667Z,65.38
2022-12-31T10:04:57.986Z,65.57
2022-12-31T10:07:34.427Z,65.34
2022-12-31T10:10:07.463Z,65.32
2022-12-31T10:12:43.805Z,65.46
2022-12-31T10:15:10.918Z,65.34
2022-12-31T10:17:49.175Z,65.58
2022-12-31T10:20:17.212Z,65.21
2022-12-31T10:22:44.387Z,65.64
2022-12-31T10:25:20.827Z,65.47
2022-12-31T10:28:07.499Z,65.13
2022-12-31T10:30:35.540Z,65.39
2022-12-31T10:33:11.796Z,65.40
2022-12-31T10:35:39.958Z,65.52
2022-12-31T10:38:06.933Z,65.39
2022-12-31T10:40:43.817Z,65.19
2022-12-31T10:43:20.908Z,65.36
2022-12-31T10:45:57.630Z,65.22
2022-12-31T10:48:33.567Z,65.42
2022-12-31T10:51:10.815Z,65.63
2022-12-31T10:53:37.871Z,65.35
2022-12-31T10:56:14.546Z,65.39
2022-12-31T10:58:41.573Z,65.55
2022-12-31T11:01:11.963Z,65.53
2022-12-31T11:03:58.905Z,65.38
2022-12-31T11:06:41.821Z,65.57
2022-12-31T11:09:24.971Z,65.37
2022-12-31T11:11:59.528Z,65.48
2022-12-31T11:14:55.911Z,65.39
2022-12-31T11:17:30.443Z,65.32
2022-12-31T11:20:09.423Z,65.52
2022-12-31T11:22:37.995Z,65.73
2022-12-31T11:25:06.421Z,65.63
2022-12-31T11:27:49.526Z,65.66
2022-12-31T11:30:28.115Z,65.67
2022-12-31T11:33:05.609Z,65.95
2022-12-31T11:35:43.070Z,65.90
2022-12-31T11:38:30.113Z,65.89
2022-12-31T11:41:14.118Z,65.83
2022-12-31T11:43:54.095Z,66.06
2022-12-31T11:46:42.731Z,65.88
2022-12-31T11:49:20.816Z,65.76
2022-12-31T11:52:00.478Z,65.74
2022-12-31T11:54:35.827Z,65.96
2022-12-31T11:57:18.496Z,65.93
2022-12-31T11:59:48.317Z,66.15
2022-12-31T12:02:18.436Z,66.05
2022-12-31T12:04:51.505Z,66.19
2022-12-31T12:07:20.815Z,65.97
2022-12-31T12:09:53.951Z,66.03
2022-12-31T12:12:20.635Z,66.37
2022-12-31T12:14:53.312Z,66.44
2022-12-31T12:17:32.977Z,66.18
2022-12-31T12:20:03.784Z,66.37
2022-12-31T12:22:33.715Z,66.11
2022-12-31T12:25:06.387Z,66.20
2022-12-31T12:27:35.400Z,66.04
2022-12-31T12:30:13.379Z,66.35
2022-12-31T12:32:54.734Z,66.19
2022-12-31T12:35:36.446Z,66.08
2022-12-31T12:38:06.322Z,66.24
2022-12-31T12:40:35.298Z,66.41
2022-12-31T12:43:07.888Z,66.39
2022-12-31T12:45:52.228Z,66.22
2022-12-31T12:48:24.643Z,66.51
2022-12-31T12:50:51.394Z,66.36
2022-12-31T12:53:19.385Z,66.50
2022-12-31T12:55:59.629Z,66.77
2022-12-31T12:58:34.587Z,66.81
2022-12-31T13:01:04.414Z,66.62
2022-12-31T13:04:23.422Z,66.66
2022-12-31T13:06:48.543Z,67.25
2022-12-31T13:09:21.199Z,67.17
2022-12-31T13:12:00.928Z,67.02
2022-12-31T13:14:52.288Z,67.04
2022-12-31T13:17:36.544Z,67.13
2022-12-31T13:20:09.497Z,67.35
2022-12-31T13:22:46.193Z,67.63
2022-12-31T13:25:18.988Z,67.78
2022-12-31T13:27:51.415Z,67.51
2022-12-31T13:30:18.114Z,67.98
2022-12-31T13:32:52.973Z,67.99
2022-12-31T13:35:27.336Z,67.82
2022-12-31T13:38:06.682Z,67.98
2022-12-31T13:40:47.255Z,67.76
2022-12-31T13:43:25.167Z,67.99
2022-12-31T13:46:00.906Z,68.11
2022-12-31T13:48:34.608Z,67.76
2022-12-31T13:51:08.080Z,67.99
2022-12-31T13:53:40.248Z,68.00
2022-12-31T13:56:13.165Z,67.98
2022-12-31T13:58:57.042Z,67.85
2022-12-31T14:01:36.215Z,67.76
2022-12-31T14:04:13.504Z,68.15
2022-12-31T14:06:46.756Z,68.09
2022-12-31T14:12:14.018Z,69.25
2022-12-31T14:14:48.040Z,69.46
2022-12-31T14:17:33.548Z,69.73
2022-12-31T14:20:10.638Z,70.09
2022-12-31T14:22:50.886Z,70.34
2022-12-31T14:25:31.490Z,69.87
2022-12-31T14:28:01.461Z,70.03
2022-12-31T14:30:31.590Z,69.89
2022-12-31T14:33:06.116Z,69.44
2022-12-31T14:35:43.488Z,69.74
2022-12-31T14:38:21.299Z,69.70
2022-12-31T14:40:54.518Z,69.03
2022-12-31T14:43:24.813Z,69.25
2022-12-31T14:46:01.480Z,68.84
2022-12-31T14:48:37.685Z,68.96
2022-12-31T14:51:05.595Z,68.55
2022-12-31T14:53:32.417Z,68.70
2022-12-31T14:56:04.120Z,68.54
2022-12-31T14:58:32.729Z,68.02
2022-12-31T15:01:04.668Z,67.87
2022-12-31T15:03:31.793Z,68.03
2022-12-31T15:06:02.240Z,67.97
2022-12-31T15:08:30.358Z,67.59
2022-12-31T15:11:05.556Z,67.77
2022-12-31T15:13:35.497Z,67.44
2022-12-31T15:16:14.663Z,67.58
2022-12-31T15:18:42.777Z,67.23
2022-12-31T15:21:12.878Z,67.17
2022-12-31T15:23:53.388Z,66.75
2022-12-31T15:26:25.888Z,66.61
2022-12-31T15:29:03.450Z,66.53
2022-12-31T15:31:46.005Z,66.27
2022-12-31T15:34:32.424Z,66.51
2022-12-31T15:37:05.777Z,66.17
2022-12-31T15:39:35.095Z,65.81
2022-12-31T15:42:37.495Z,66.03
2022-12-31T15:44:56.037Z,65.79
2022-12-31T15:47:30.582Z,65.57
2022-12-31T15:50:03.683Z,65.70
2022-12-31T15:52:46.155Z,65.63
2022-12-31T15:55:24.750Z,65.26
2022-12-31T15:57:59.317Z,65.14
2022-12-31T16:00:33.224Z,65.24
2022-12-31T16:03:02.488Z,65.00
2022-12-31T16:05:38.824Z,65.32
2022-12-31T16:08:13.547Z,65.31
2022-12-31T16:10:45.350Z,65.03
2022-12-31T16:13:21.200Z,65.20
2022-12-31T16:15:50.217Z,65.16
2022-12-31T16:18:25.224Z,64.92
2022-12-31T16:20:55.760Z,65.01
2022-12-31T16:23:29.416Z,64.77
2022-12-31T16:26:04.394Z,65.10
2022-12-31T16:28:34.716Z,64.91
2022-12-31T16:31:07.443Z,64.62
2022-12-31T16:33:37.964Z,64.91
2022-12-31T16:36:06.564Z,64.99
2022-12-31T16:38:36.357Z,64.97
2022-12-31T16:41:06.820Z,64.70
2022-12-31T16:46:12.259Z,64.65
2022-12-31T16:48:54.747Z,64.95
2022-12-31T16:51:25.817Z,64.48
2022-12-31T16:54:00.318Z,64.95
2022-12-31T16:56:38.134Z,64.87
2022-12-31T17:02:09.514Z,64.64
2022-12-31T17:04:53.552Z,64.81
2022-12-31T17:07:25.896Z,64.89
2022-12-31T17:10:10.850Z,65.05
2022-12-31T17:13:25.562Z,64.93
2022-12-31T17:15:53.949Z,64.87
2022-12-31T17:18:30.545Z,64.53
2022-12-31T17:21:08.924Z,64.60
2022-12-31T17:23:38.317Z,64.65
2022-12-31T17:26:11.625Z,64.95
2022-12-31T17:28:51.845Z,64.61
2022-12-31T17:31:35.385Z,64.75
2022-12-31T17:34:12.958Z,65.08
2022-12-31T17:36:47.635Z,64.76
2022-12-31T17:39:19.389Z,65.00
2022-12-31T17:41:49.765Z,64.90
2022-12-31T17:44:19.280Z,65.07
2022-12-31T17:46:57.698Z,64.79
2022-12-31T17:49:39.277Z,64.78
2022-12-31T17:52:10.475Z,64.82
2022-12-31T17:54:38.279Z,65.08
2022-12-31T17:57:10.075Z,64.97
2022-12-31T17:59:41.773Z,65.30
2022-12-31T18:02:13.463Z,65.17
2022-12-31T18:04:53.390Z,65.02
2022-12-31T18:07:25.491Z,65.15
2022-12-31T18:09:53.558Z,65.37
2022-12-31T18:12:23.565Z,65.04
2022-12-31T18:14:58.079Z,64.98
2022-12-31T18:17:24.681Z,65.36
2022-12-31T18:20:04.893Z,65.23
2022-12-31T18:22:35.365Z,65.50
2022-12-31T18:25:03.990Z,65.43
2022-12-31T18:27:34.980Z,65.66
2022-12-31T18:30:05.066Z,65.51
2022-12-31T18:32:37.395Z,65.43
2022-12-31T18:35:13.931Z,65.83
2022-12-31T18:37:49.576Z,65.74
2022-12-31T18:40:20.814Z,65.72
2022-12-31T18:42:49.810Z,65.86
2022-12-31T18:45:20.160Z,65.92
2022-12-31T18:47:47.654Z,65.81
2022-12-31T18:50:24.640Z,66.08
2022-12-31T18:52:52.254Z,66.22
2022-12-31T18:55:23.674Z,65.93
2022-12-31T18:57:56.834Z,66.16
2022-12-31T19:00:23.532Z,66.25
2022-12-31T19:02:50.440Z,65.99
2022-12-31T19:05:27.422Z,66.46
2022-12-31T19:07:59.862Z,66.40
2022-12-31T19:10:31.540Z,66.09
2022-12-31T19:12:59.503Z,66.15
2022-12-31T19:15:39.096Z,66.31
2022-12-31T19:18:07.054Z,66.80
2022-12-31T19:20:41.779Z,66.79
2022-12-31T19:23:14.780Z,66.53
2022-12-31T19:25:44.729Z,66.33
2022-12-31T19:28:21.834Z,66.79
2022-12-31T19:30:53.032Z,67.00
2022-12-31T19:33:25.303Z,66.60
2022-12-31T19:35:51.963Z,66.80
2022-12-31T19:38:24.606Z,66.52
2022-12-31T19:40:56.035Z,66.93
2022-12-31T19:43:46.341Z,66.71
2022-12-31T19:46:19.542Z,66.47
2022-12-31T19:48:55.178Z,66.82
2022-12-31T19:51:22.895Z,66.65
2022-12-31T19:53:50.497Z,66.52
2022-12-31T19:56:18.485Z,66.52
2022-12-31T19:58:46.913Z,66.61
2022-12-31T20:01:23.162Z,66.83
2022-12-31T20:03:58.608Z,66.76
2022-12-31T20:06:27.490Z,66.81
2022-12-31T20:08:55.397Z,66.47
2022-12-31T20:11:24.743Z,66.70
2022-12-31T20:13:54.864Z,66.79
2022-12-31T20:16:23.035Z,66.84
2022-12-31T20:18:51.115Z,66.38
2022-12-31T20:21:20.460Z,66.44
2022-12-31T20:23:52.824Z,66.51
2022-12-31T20:26:21.986Z,66.67
2022-12-31T20:28:53.009Z,66.46
2022-12-31T20:31:25.884Z,66.27
2022-12-31T20:33:56.085Z,66.36
2022-12-31T20:36:23.976Z,66.50
2022-12-31T20:38:50.688Z,66.50
2022-12-31T20:41:19.006Z,66.38
2022-12-31T20:43:46.466Z,66.45
2022-12-31T20:46:15.978Z,66.05
2022-12-31T20:48:43.529Z,66.18
2022-12-31T20:51:10.494Z,66.32
2022-12-31T20:53:37.289Z,66.22
2022-12-31T20:56:05.607Z,66.20
2022-12-31T20:58:39.865Z,66.16
2022-12-31T21:01:10.505Z,66.09
2022-12-31T21:06:27.955Z,65.89
2022-12-31T21:08:57.043Z,65.77
2022-12-31T21:11:38.166Z,65.86
2022-12-31T21:14:05.446Z,65.83
2022-12-31T21:16:36.685Z,65.81
2022-12-31T21:19:03.408Z,65.81
2022-12-31T21:21:30.826Z,65.67
2022-12-31T21:23:57.596Z,65.46
2022-12-31T21:26:25.433Z,65.28
2022-12-31T21:28:54.562Z,65.24
2022-12-31T21:31:29.611Z,65.08
2022-12-31T21:33:56.443Z,65.00
2022-12-31T21:36:24.014Z,65.11
2022-12-31T21:38:54.809Z,65.37
2022-12-31T21:41:34.077Z,65.00
2022-12-31T21:44:03.268Z,64.73
2022-12-31T21:46:31.937Z,65.07
2022-12-31T21:49:01.379Z,64.56
2022-12-31T21:51:30.046Z,64.63
2022-12-31T21:53:57.635Z,64.60
2022-12-31T21:56:26.307Z,64.75
2022-12-31T21:59:04.574Z,64.37
2022-12-31T22:01:41.793Z,64.21
2022-12-31T22:04:28.202Z,64.30
2022-12-31T22:06:57.843Z,64.34
2022-12-31T22:09:25.187Z,64.09
2022-12-31T22:11:52.018Z,64.44
2022-12-31T22:14:18.803Z,64.16
2022-12-31T22:16:45.597Z,64.06
2022-12-31T22:19:12.455Z,63.92
2022-12-31T22:21:39.265Z,64.20
2022-12-31T22:24:09.980Z,64.00
2022-12-31T22:26:43.044Z,63.85
2022-12-31T22:29:15.765Z,63.78
2022-12-31T22:31:42.510Z,63.73
2022-12-31T22:34:09.395Z,64.05
2022-12-31T22:36:36.248Z,64.13
2022-12-31T22:39:03.065Z,63.62
2022-12-31T22:41:29.895Z,63.97
2022-12-31T22:44:03.033Z,63.99
2022-12-31T22:46:34.918Z,63.48
2022-12-31T22:49:05.871Z,63.57
2022-12-31T22:51:57.699Z,63.73
2022-12-31T22:54:21.877Z,63.66
2022-12-31T22:56:50.465Z,63.72
2022-12-31T22:59:17.188Z,63.41
2022-12-31T23:01:44.354Z,63.64
2022-12-31T23:04:12.839Z,63.78
2022-12-31T23:06:50.244Z,63.47
2022-12-31T23:09:28.430Z,63.74
2022-12-31T23:11:56.200Z,63.25
2022-12-31T23:14:35.682Z,63.25
2022-12-31T23:17:29.770Z,63.39
2022-12-31T23:20:09.546Z,63.19
2022-12-31T23:22:49.131Z,63.54
2022-12-31T23:25:16.464Z,63.13
2022-12-31T23:27:43.846Z,63.26
2022-12-31T23:30:11.152Z,63.07
2022-12-31T23:32:37.909Z,63.08
2022-12-31T23:35:09.841Z,63.10
2022-12-31T23:37:36.912Z,63.28
2022-12-31T23:40:03.868Z,62.94
2022-12-31T23:42:30.512Z,63.15
2022-12-31T23:44:57.304Z,63.01
2022-12-31T23:47:24.046Z,62.89
2022-12-31T23:49:50.735Z,63.04
2022-12-31T23:52:17.413Z,63.12
2022-12-31T23:54:44.096Z,63.39
2022-12-31T23:57:11.022Z,62.94
2022-12-31T23:59:37.660Z,63.30
